createdAt,value
2024-05-09T00:01:57.379Z,102857.97
2024-05-09T00:06:59.245Z,102864.25
2024-05-09T00:12:03.886Z,102863.75
2024-05-09T00:17:05.962Z,102863.06
2024-05-09T00:22:10.043Z,102855.59
2024-05-09T00:27:15.047Z,102843.88
2024-05-09T00:32:21.672Z,102863.66
2024-05-09T00:37:23.638Z,102863.75
2024-05-09T00:42:27.570Z,102865.28
2024-05-09T00:47:29.557Z,102850.88
2024-05-09T00:52:34.420Z,102853.38
2024-05-09T00:57:39.864Z,102846.47
2024-05-09T01:02:41.921Z,102828.88
2024-05-09T01:07:44.994Z,102834.47
2024-05-09T01:12:46.931Z,102821.22
2024-05-09T01:17:51.297Z,102831.34
2024-05-09T01:22:54.207Z,102828.03
2024-05-09T01:27:56.083Z,102830.44
2024-05-09T01:33:01.354Z,102834.59
2024-05-09T01:38:05.920Z,102835.88
2024-05-09T01:43:12.039Z,102836.31
2024-05-09T01:48:14.286Z,102831.09
2024-05-09T01:53:16.321Z,102827.31
2024-05-09T01:58:18.271Z,102819.69
2024-05-09T02:03:21.484Z,102822.66
2024-05-09T02:08:23.465Z,102821.94
2024-05-09T02:13:25.370Z,102827.94
2024-05-09T02:18:29.546Z,102826.41
2024-05-09T02:23:34.504Z,102830.63
2024-05-09T02:28:36.488Z,102832.50
2024-05-09T02:33:42.739Z,102831.06
2024-05-09T02:38:44.989Z,102824.03
2024-05-09T02:43:46.925Z,102817.97
2024-05-09T02:48:49.036Z,102827.03
2024-05-09T02:53:53.472Z,102831.53
2024-05-09T02:58:57.589Z,102830.41
2024-05-09T03:04:01.762Z,102819.69
2024-05-09T03:09:09.681Z,102810.50
2024-05-09T03:14:17.320Z,102817.81
2024-05-09T03:19:22.081Z,102816.81
2024-05-09T03:24:26.802Z,102811.88
2024-05-09T03:29:31.354Z,102804.69
2024-05-09T03:34:33.705Z,102807.19
2024-05-09T03:39:36.084Z,102803.38
2024-05-09T03:44:38.769Z,102802.19
2024-05-09T03:49:41.096Z,102797.25
2024-05-09T03:54:48.880Z,102799.91
2024-05-09T03:59:53.173Z,102789.34
2024-05-09T04:04:57.618Z,102796.22
2024-05-09T04:09:59.690Z,102797.91
2024-05-09T04:15:04.372Z,102794.66
2024-05-09T04:20:10.568Z,102795.63
2024-05-09T04:25:12.869Z,102795.75
2024-05-09T04:30:25.776Z,102809.13
2024-05-09T04:35:38.253Z,102805.00
2024-05-09T04:40:40.652Z,102802.31
2024-05-09T04:45:42.926Z,102794.91
2024-05-09T04:50:45.255Z,102807.06
2024-05-09T04:55:47.298Z,102795.94
2024-05-09T05:00:49.255Z,102808.78
2024-05-09T05:05:51.654Z,102813.72
2024-05-09T05:10:56.172Z,102815.75
2024-05-09T05:15:58.687Z,102814.09
2024-05-09T05:21:01.186Z,102815.09
2024-05-09T05:26:03.211Z,102820.34
2024-05-09T05:31:05.238Z,102809.38
2024-05-09T05:36:07.810Z,102818.13
2024-05-09T05:41:10.276Z,102811.47
2024-05-09T05:46:12.180Z,102815.72
2024-05-09T05:51:14.215Z,102820.66
2024-05-09T05:56:16.424Z,102823.66
2024-05-09T06:01:20.881Z,102828.03
2024-05-09T06:06:22.917Z,102825.66
2024-05-09T06:11:27.479Z,102834.41
2024-05-09T06:16:29.405Z,102831.28
2024-05-09T06:21:31.275Z,102823.34
2024-05-09T06:26:33.592Z,102832.03
2024-05-09T06:31:45.036Z,102825.34
2024-05-09T06:36:47.722Z,102832.06
2024-05-09T06:41:50.486Z,102845.53
2024-05-09T06:46:58.185Z,102838.94
2024-05-09T06:52:02.179Z,102849.16
2024-05-09T06:57:08.029Z,102830.00
2024-05-09T07:02:10.311Z,102839.91
2024-05-09T07:07:14.953Z,102844.56
2024-05-09T07:12:17.706Z,102838.50
2024-05-09T07:17:20.544Z,102838.84
2024-05-09T07:22:25.693Z,102841.00
2024-05-09T07:27:32.610Z,102838.50
2024-05-09T07:32:36.966Z,102833.63
2024-05-09T07:37:41.051Z,102835.81
2024-05-09T07:42:46.148Z,102837.13
2024-05-09T07:49:13.244Z,102841.41
2024-05-09T07:53:37.282Z,102835.09
2024-05-09T07:58:35.195Z,102839.31
2024-05-09T08:03:40.535Z,102831.72
2024-05-09T08:08:43.159Z,102822.97
2024-05-09T08:13:45.349Z,102829.91
2024-05-09T08:18:47.764Z,102842.16
2024-05-09T08:23:49.749Z,102826.34
2024-05-09T08:28:56.809Z,102826.94
2024-05-09T08:34:02.067Z,102816.91
2024-05-09T08:39:04.338Z,102827.53
2024-05-09T08:44:10.001Z,102823.72
2024-05-09T08:49:12.462Z,102828.63
2024-05-09T08:54:18.048Z,102823.09
2024-05-09T08:59:27.973Z,102821.41
2024-05-09T09:04:31.327Z,102823.28
2024-05-09T09:09:35.727Z,102821.91
2024-05-09T09:14:38.070Z,102820.56
2024-05-09T09:19:46.334Z,102808.91
2024-05-09T09:24:51.944Z,102824.81
2024-05-09T09:29:56.909Z,102812.34
2024-05-09T09:35:01.254Z,102810.91
2024-05-09T09:40:04.642Z,102810.28
2024-05-09T09:45:09.195Z,102813.00
2024-05-09T09:50:20.357Z,102818.13
2024-05-09T09:55:26.354Z,102809.34
2024-05-09T10:00:33.251Z,102806.94
2024-05-09T10:05:41.184Z,102801.03
2024-05-09T10:10:51.236Z,102800.56
2024-05-09T10:15:54.744Z,102791.81
2024-05-09T10:20:56.811Z,102793.00
2024-05-09T10:26:00.407Z,102796.88
2024-05-09T10:31:09.632Z,102792.53
2024-05-09T10:36:13.178Z,102794.84
2024-05-09T10:41:40.583Z,102799.19
2024-05-09T10:46:43.490Z,102789.81
2024-05-09T10:51:48.755Z,102786.78
2024-05-09T10:56:58.192Z,102788.00
2024-05-09T11:02:08.635Z,102792.91
2024-05-09T11:07:13.972Z,102784.31
2024-05-09T11:12:16.023Z,102779.53
2024-05-09T11:17:18.619Z,102779.66
2024-05-09T11:22:25.362Z,102764.69
2024-05-09T11:27:27.871Z,102767.81
2024-05-09T11:32:30.682Z,102757.13
2024-05-09T11:37:36.052Z,102763.16
2024-05-09T11:42:47.737Z,102764.84
2024-05-09T11:47:51.364Z,102757.81
2024-05-09T11:52:58.413Z,102758.75
2024-05-09T11:58:00.689Z,102758.09
2024-05-09T12:03:06.321Z,102747.00
2024-05-09T12:08:10.069Z,102749.97
2024-05-09T12:13:12.061Z,102751.81
2024-05-09T12:18:16.598Z,102752.59
2024-05-09T12:23:21.732Z,102741.19
2024-05-09T12:28:24.307Z,102741.88
2024-05-09T12:33:27.422Z,102741.16
2024-05-09T12:38:32.754Z,102739.25
2024-05-09T12:43:35.628Z,102742.81
2024-05-09T12:48:43.016Z,102737.94
2024-05-09T12:53:45.665Z,102730.63
2024-05-09T12:58:49.833Z,102736.19
2024-05-09T13:03:54.874Z,102732.41
2024-05-09T13:08:57.570Z,102731.84
2024-05-09T13:13:59.781Z,102720.97
2024-05-09T13:19:07.031Z,102714.66
2024-05-09T13:24:11.542Z,102721.03
2024-05-09T13:29:13.516Z,102715.81
2024-05-09T13:34:16.043Z,102712.09
2024-05-09T13:39:18.427Z,102707.38
2024-05-09T13:44:20.714Z,102709.06
2024-05-09T13:49:22.863Z,102706.16
2024-05-09T13:54:28.219Z,102705.22
2024-05-09T13:59:30.663Z,102703.47
2024-05-09T14:04:35.251Z,102693.72
2024-05-09T14:09:37.854Z,102685.22
2024-05-09T14:14:42.720Z,102678.41
2024-05-09T14:19:46.549Z,102673.97
2024-05-09T14:24:49.399Z,102669.88
2024-05-09T14:29:52.480Z,102663.75
2024-05-09T14:34:54.718Z,102649.56
2024-05-09T14:40:01.586Z,102646.44
2024-05-09T14:45:06.451Z,102655.25
2024-05-09T14:50:16.865Z,102644.50
2024-05-09T14:55:45.947Z,102626.44
2024-05-09T15:01:10.490Z,102624.47
2024-05-09T15:06:35.029Z,102629.25
2024-05-09T15:11:57.521Z,102602.59
2024-05-09T15:17:22.206Z,102596.09
2024-05-09T15:22:47.616Z,102597.69
2024-05-09T15:27:52.168Z,102596.06
2024-05-09T15:32:57.000Z,102588.59
2024-05-09T15:38:03.598Z,102599.25
2024-05-09T15:43:07.001Z,102585.19
2024-05-09T15:48:10.409Z,102596.50
2024-05-09T15:53:13.933Z,102596.50
2024-05-09T15:58:16.385Z,102597.53
2024-05-09T16:03:21.565Z,102599.47
2024-05-09T16:08:24.162Z,102610.06
2024-05-09T16:13:26.419Z,102598.13
2024-05-09T16:18:29.261Z,102592.63
2024-05-09T16:23:31.414Z,102593.00
2024-05-09T16:28:33.972Z,102597.41
2024-05-09T16:33:40.556Z,102585.34
2024-05-09T16:38:45.612Z,102591.72
2024-05-09T16:43:47.800Z,102581.16
2024-05-09T16:48:52.885Z,102565.63
2024-05-09T16:53:55.595Z,102569.84
2024-05-09T16:58:57.619Z,102570.34
2024-05-09T17:04:00.132Z,102563.00
2024-05-09T17:09:08.619Z,102563.06
2024-05-09T17:14:16.992Z,102562.06
2024-05-09T17:19:19.441Z,102563.25
2024-05-09T17:24:22.084Z,102553.31
2024-05-09T17:29:28.545Z,102554.69
2024-05-09T17:34:33.514Z,102545.31
2024-05-09T17:39:35.757Z,102548.94
2024-05-09T17:44:37.892Z,102544.16
2024-05-09T17:49:40.321Z,102545.78
2024-05-09T17:54:42.738Z,102533.25
2024-05-09T17:59:44.918Z,102530.75
2024-05-09T18:04:47.158Z,102527.59
2024-05-09T18:09:49.338Z,102533.84
2024-05-09T18:14:51.397Z,102539.06
2024-05-09T18:19:53.907Z,102534.25
2024-05-09T18:24:56.354Z,102541.28
2024-05-09T18:29:58.838Z,102534.03
2024-05-09T18:35:00.894Z,102536.66
2024-05-09T18:40:03.376Z,102540.09
2024-05-09T18:45:07.321Z,102546.84
2024-05-09T18:50:17.560Z,102554.00
2024-05-09T18:55:27.230Z,102559.72
2024-05-09T19:00:37.542Z,102556.78
2024-05-09T19:05:44.653Z,102546.28
2024-05-09T19:10:52.936Z,102567.38
2024-05-09T19:15:55.416Z,102566.69
2024-05-09T19:20:59.890Z,102560.25
2024-05-09T19:26:04.151Z,102565.88
2024-05-09T19:31:06.109Z,102571.22
2024-05-09T19:36:08.282Z,102580.31
2024-05-09T19:41:10.205Z,102578.19
2024-05-09T19:46:12.554Z,102577.72
2024-05-09T19:51:19.454Z,102577.63
2024-05-09T19:56:26.397Z,102574.63
2024-05-09T20:01:32.815Z,102570.50
2024-05-09T20:06:36.684Z,102560.56
2024-05-09T20:11:41.178Z,102556.94
2024-05-09T20:16:44.741Z,102550.56
2024-05-09T20:21:46.694Z,102562.72
2024-05-09T20:26:48.599Z,102556.88
2024-05-09T20:31:50.456Z,102553.53
2024-05-09T20:36:57.893Z,102543.63
2024-05-09T20:42:02.192Z,102539.78
2024-05-09T20:47:04.268Z,102539.84
2024-05-09T20:52:06.384Z,102528.91
2024-05-09T20:57:13.213Z,102537.09
2024-05-09T21:02:15.686Z,102539.00
2024-05-09T21:07:17.963Z,102533.63
2024-05-09T21:12:19.862Z,102528.22
2024-05-09T21:17:21.866Z,102536.72
2024-05-09T21:22:23.815Z,102524.00
2024-05-09T21:27:25.836Z,102529.94
2024-05-09T21:32:30.433Z,102527.63
2024-05-09T21:37:32.474Z,102527.66
2024-05-09T21:42:36.894Z,102522.47
2024-05-09T21:47:41.136Z,102522.47
2024-05-09T21:52:43.072Z,102511.75
2024-05-09T21:57:44.921Z,102512.38
2024-05-09T22:02:50.138Z,102511.00
2024-05-09T22:07:54.119Z,102512.38
2024-05-09T22:12:59.233Z,102505.47
2024-05-09T22:18:01.285Z,102494.00
2024-05-09T22:23:04.581Z,102489.63
2024-05-09T22:28:07.423Z,102497.00
2024-05-09T22:33:11.999Z,102507.91
2024-05-09T22:38:14.807Z,102512.25
2024-05-09T22:43:19.257Z,102500.97
2024-05-09T22:48:21.665Z,102503.25
2024-05-09T22:53:26.453Z,102514.97
2024-05-09T22:58:30.618Z,102520.16
2024-05-09T23:03:35.607Z,102516.72
2024-05-09T23:08:37.645Z,102503.22
2024-05-09T23:13:41.747Z,102500.81
2024-05-09T23:18:43.798Z,102511.03
2024-05-09T23:23:47.963Z,102507.47
2024-05-09T23:28:52.020Z,102519.16
2024-05-09T23:33:57.013Z,102507.69
2024-05-09T23:38:59.177Z,102502.25
2024-05-09T23:44:01.001Z,102499.63
2024-05-09T23:49:03.093Z,102504.09
2024-05-09T23:54:08.616Z,102510.09
2024-05-09T23:59:10.485Z,102508.19
